createdAt,value
2019-04-27T00:02:26.574Z,100864.80
2019-04-27T00:05:03.975Z,100853.97
2019-04-27T00:07:40.489Z,100862.92
2019-04-27T00:10:33.522Z,100857.34
2019-04-27T00:13:05.733Z,100862.91
2019-04-27T00:15:47.200Z,100859.81
2019-04-27T00:18:26.824Z,100855.13
2019-04-27T00:21:06.848Z,100851.81
2019-04-27T00:23:36.511Z,100867.18
2019-04-27T00:26:06.363Z,100878.63
2019-04-27T00:28:36.631Z,100884.75
2019-04-27T00:31:06.449Z,100887.19
2019-04-27T00:33:36.111Z,100884.35
2019-04-27T00:36:13.646Z,100882.42
2019-04-27T00:38:54.934Z,100875.22
2019-04-27T00:41:24.683Z,100884.39
2019-04-27T00:43:54.428Z,100888.84
2019-04-27T00:46:24.133Z,100888.57
2019-04-27T00:48:53.813Z,100887.77
2019-04-27T00:51:23.572Z,100892.52
2019-04-27T00:53:54.967Z,100890.59
2019-04-27T00:56:35.080Z,100887.26
2019-04-27T00:59:23.973Z,100889.47
2019-04-27T01:02:05.737Z,100884.70
2019-04-27T01:04:35.486Z,100872.44
2019-04-27T01:07:05.231Z,100884.66
2019-04-27T01:09:35.442Z,100891.94
2019-04-27T01:12:05.374Z,100899.17
2019-04-27T01:14:35.188Z,100899.14
2019-04-27T01:17:04.881Z,100898.28
2019-04-27T01:19:34.581Z,100884.63
2019-04-27T01:22:04.324Z,100881.56
2019-04-27T01:24:34.002Z,100877.97
2019-04-27T01:27:24.968Z,100881.03
2019-04-27T01:29:55.665Z,100879.67
2019-04-27T01:32:25.347Z,100873.56
2019-04-27T01:34:55.086Z,100876.88
2019-04-27T01:37:24.764Z,100870.69
2019-04-27T01:39:54.433Z,100861.75
2019-04-27T01:42:24.131Z,100853.43
2019-04-27T01:44:53.802Z,100864.53
2019-04-27T01:47:23.478Z,100863.45
2019-04-27T01:49:53.150Z,100861.52
2019-04-27T01:52:22.822Z,100863.50
2019-04-27T01:54:52.493Z,100867.98
2019-04-27T01:57:22.166Z,100865.78
2019-04-27T01:59:51.827Z,100872.17
2019-04-27T02:02:34.483Z,100864.94
2019-04-27T02:05:22.920Z,100859.91
2019-04-27T02:07:52.602Z,100869.92
2019-04-27T02:10:22.259Z,100877.97
2019-04-27T02:12:52.034Z,100879.36
2019-04-27T02:15:21.847Z,100886.87
2019-04-27T02:17:51.606Z,100880.44
2019-04-27T02:20:21.340Z,100885.16
2019-04-27T02:22:51.022Z,100875.72
2019-04-27T02:25:21.190Z,100880.70
2019-04-27T02:27:59.170Z,100882.11
2019-04-27T02:31:21.842Z,100887.14
2019-04-27T02:33:59.592Z,100886.29
2019-04-27T02:36:30.515Z,100877.39
2019-04-27T02:39:00.403Z,100877.97
2019-04-27T02:41:31.767Z,100878.52
2019-04-27T02:44:20.508Z,100890.50
2019-04-27T02:46:50.502Z,100880.72
2019-04-27T02:49:20.353Z,100874.59
2019-04-27T02:51:56.541Z,100878.78
2019-04-27T02:54:26.221Z,100874.06
2019-04-27T02:56:55.889Z,100867.64
2019-04-27T02:59:25.555Z,100861.52
2019-04-27T03:02:06.987Z,100865.39
2019-04-27T03:04:39.653Z,100855.98
2019-04-27T03:07:08.019Z,100852.36
2019-04-27T03:09:39.540Z,100848.77
2019-04-27T03:12:10.175Z,100851.00
2019-04-27T03:14:50.566Z,100856.53
2019-04-27T03:17:42.557Z,100858.77
2019-04-27T03:23:04.041Z,100850.15
2019-04-27T03:26:00.318Z,100855.45
2019-04-27T03:28:30.171Z,100851.00
2019-04-27T03:31:02.625Z,100858.23
2019-04-27T03:33:32.759Z,100863.80
2019-04-27T03:36:03.314Z,100865.47
2019-04-27T03:38:33.096Z,100868.27
2019-04-27T03:41:02.857Z,100863.81
2019-04-27T03:43:32.631Z,100857.39
2019-04-27T03:46:02.509Z,100855.72
2019-04-27T03:48:32.214Z,100857.42
2019-04-27T03:51:19.716Z,100861.61
2019-04-27T03:54:06.705Z,100873.02
2019-04-27T03:56:50.799Z,100874.14
2019-04-27T03:59:40.530Z,100874.45
2019-04-27T04:02:10.263Z,100867.19
2019-04-27T04:04:40.692Z,100871.94
2019-04-27T04:07:15.704Z,100868.88
2019-04-27T04:09:45.530Z,100875.27
2019-04-27T04:12:21.914Z,100879.72
2019-04-27T04:14:51.585Z,100881.92
2019-04-27T04:17:22.182Z,100870.81
2019-04-27T04:19:57.573Z,100870.78
2019-04-27T04:22:23.305Z,100859.05
2019-04-27T04:24:52.996Z,100855.14
2019-04-27T04:27:22.673Z,100856.26
2019-04-27T04:29:53.325Z,100855.37
2019-04-27T04:32:23.011Z,100861.48
2019-04-27T04:34:52.761Z,100863.41
2019-04-27T04:37:22.427Z,100865.08
2019-04-27T04:39:53.487Z,100863.09
2019-04-27T04:42:41.549Z,100850.83
2019-04-27T04:45:25.726Z,100855.86
2019-04-27T04:47:59.616Z,100865.88
2019-04-27T04:50:30.382Z,100874.16
2019-04-27T04:53:00.345Z,100872.17
2019-04-27T04:55:30.752Z,100871.58
2019-04-27T04:58:00.653Z,100876.83
2019-04-27T05:00:30.332Z,100882.36
2019-04-27T05:03:00.001Z,100874.75
2019-04-27T05:05:29.681Z,100877.73
2019-04-27T05:08:00.713Z,100871.98
2019-04-27T05:10:31.686Z,100881.63
2019-04-27T05:13:01.350Z,100875.89
2019-04-27T05:15:31.024Z,100875.11
2019-04-27T05:18:00.684Z,100867.59
2019-04-27T05:20:49.393Z,100871.47
2019-04-27T05:23:19.068Z,100868.70
2019-04-27T05:25:49.370Z,100871.34
2019-04-27T05:28:19.168Z,100872.48
2019-04-27T05:30:49.103Z,100869.76
2019-04-27T05:33:18.960Z,100869.33
2019-04-27T05:35:49.718Z,100867.91
2019-04-27T05:38:19.533Z,100868.08
2019-04-27T05:40:49.921Z,100867.89
2019-04-27T05:43:25.570Z,100871.97
2019-04-27T05:46:36.770Z,100865.71
2019-04-27T05:49:09.558Z,100864.20
2019-04-27T05:51:41.772Z,100861.14
2019-04-27T05:54:10.773Z,100864.11
2019-04-27T05:56:40.464Z,100863.23
2019-04-27T05:59:10.129Z,100863.73
2019-04-27T06:01:39.817Z,100867.84
2019-04-27T06:04:09.565Z,100870.06
2019-04-27T06:06:39.868Z,100865.95
2019-04-27T06:09:09.798Z,100867.87
2019-04-27T06:11:40.104Z,100861.49
2019-04-27T06:14:10.792Z,100873.37
2019-04-27T06:16:40.760Z,100870.25
2019-04-27T06:19:10.420Z,100862.16
2019-04-27T06:21:40.330Z,100860.13
2019-04-27T06:24:10.066Z,100846.89
2019-04-27T06:26:40.074Z,100843.30
2019-04-27T06:29:11.088Z,100835.83
2019-04-27T06:31:40.759Z,100833.33
2019-04-27T06:34:10.431Z,100832.26
2019-04-27T06:36:40.145Z,100826.58
2019-04-27T06:39:10.017Z,100823.78
2019-04-27T06:41:40.111Z,100826.87
2019-04-27T06:44:11.373Z,100825.53
2019-04-27T06:46:41.413Z,100821.48
2019-04-27T06:49:11.375Z,100806.57
2019-04-27T06:51:41.246Z,100806.57
2019-04-27T06:54:10.936Z,100808.50
2019-04-27T06:56:40.608Z,100805.56
2019-04-27T06:59:10.295Z,100799.38
2019-04-27T07:01:39.972Z,100797.48
2019-04-27T07:04:10.892Z,100800.88
2019-04-27T07:06:52.944Z,100802.85
2019-04-27T07:09:12.596Z,100800.86
2019-04-27T07:11:42.277Z,100803.47
2019-04-27T07:14:11.964Z,100805.34
2019-04-27T07:16:41.642Z,100793.63
2019-04-27T07:19:11.337Z,100789.02
2019-04-27T07:21:41.007Z,100776.63
2019-04-27T07:24:10.764Z,100786.74
2019-04-27T07:26:40.448Z,100780.27
2019-04-27T07:29:10.137Z,100777.73
2019-04-27T07:31:40.884Z,100779.33
2019-04-27T07:34:10.654Z,100778.27
2019-04-27T07:36:40.322Z,100778.02
2019-04-27T07:39:11.534Z,100772.69
2019-04-27T07:41:41.321Z,100768.70
2019-04-27T07:44:16.322Z,100768.92
2019-04-27T07:47:05.018Z,100765.49
2019-04-27T07:49:34.712Z,100764.57
2019-04-27T07:52:04.486Z,100764.92
2019-04-27T07:54:34.158Z,100760.59
2019-04-27T07:57:03.916Z,100751.77
2019-04-27T07:59:33.751Z,100757.17
2019-04-27T08:02:03.535Z,100749.23
2019-04-27T08:04:33.305Z,100758.03
2019-04-27T08:07:02.978Z,100753.39
2019-04-27T08:09:32.676Z,100757.33
2019-04-27T08:12:02.382Z,100747.50
2019-04-27T08:14:32.118Z,100758.00
2019-04-27T08:17:01.866Z,100750.48
2019-04-27T08:19:31.550Z,100753.85
2019-04-27T08:22:01.651Z,100748.51
2019-04-27T08:24:31.655Z,100747.83
2019-04-27T08:27:19.467Z,100743.10
2019-04-27T08:30:09.487Z,100747.62
2019-04-27T08:32:42.091Z,100741.04
2019-04-27T08:35:12.821Z,100754.74
2019-04-27T08:37:42.543Z,100750.25
2019-04-27T08:40:12.880Z,100750.06
2019-04-27T08:42:42.719Z,100736.61
2019-04-27T08:45:13.305Z,100742.66
2019-04-27T08:47:42.999Z,100740.88
2019-04-27T08:50:13.033Z,100741.63
2019-04-27T08:52:42.702Z,100744.23
2019-04-27T08:55:12.839Z,100740.67
2019-04-27T08:57:42.511Z,100736.67
2019-04-27T09:00:12.542Z,100743.38
2019-04-27T09:02:46.941Z,100739.17
2019-04-27T09:05:13.652Z,100730.75
2019-04-27T09:07:53.305Z,100737.27
2019-04-27T09:10:31.932Z,100734.91
2019-04-27T09:13:14.328Z,100733.34
2019-04-27T09:16:00.132Z,100724.66
2019-04-27T09:18:32.567Z,100719.09
2019-04-27T09:21:03.199Z,100726.48
2019-04-27T09:23:32.892Z,100716.83
2019-04-27T09:26:02.593Z,100711.06
2019-04-27T09:28:32.282Z,100706.50
2019-04-27T09:31:01.968Z,100705.89
2019-04-27T09:33:31.629Z,100705.81
2019-04-27T09:36:01.373Z,100704.37
2019-04-27T09:38:31.029Z,100705.48
2019-04-27T09:41:00.709Z,100699.62
2019-04-27T09:43:30.370Z,100695.86
2019-04-27T09:46:00.057Z,100693.61
2019-04-27T09:48:29.712Z,100701.59
2019-04-27T09:50:59.461Z,100701.16
2019-04-27T09:53:29.117Z,100688.11
2019-04-27T09:55:59.860Z,100686.06
2019-04-27T09:58:29.512Z,100686.86
2019-04-27T10:00:59.347Z,100681.29
2019-04-27T10:03:29.003Z,100686.71
2019-04-27T10:05:58.731Z,100675.61
2019-04-27T10:08:28.521Z,100662.11
2019-04-27T10:10:58.195Z,100661.45
2019-04-27T10:13:27.891Z,100664.75
2019-04-27T10:15:57.541Z,100660.86
2019-04-27T10:18:27.202Z,100658.19
2019-04-27T10:21:01.734Z,100659.36
2019-04-27T10:23:28.237Z,100667.84
2019-04-27T10:25:57.894Z,100664.73
2019-04-27T10:28:27.653Z,100649.91
2019-04-27T10:30:57.321Z,100652.45
2019-04-27T10:33:28.051Z,100651.28
2019-04-27T10:35:57.710Z,100644.83
2019-04-27T10:38:27.416Z,100646.77
2019-04-27T10:40:57.219Z,100634.66
2019-04-27T10:43:26.882Z,100646.92
2019-04-27T10:45:56.624Z,100646.96
2019-04-27T10:48:26.628Z,100636.30
2019-04-27T10:50:56.393Z,100635.80
2019-04-27T10:53:26.889Z,100636.81
2019-04-27T10:55:56.746Z,100626.25
2019-04-27T10:58:27.425Z,100624.78
2019-04-27T11:00:59.049Z,100629.47
2019-04-27T11:03:46.407Z,100627.19
2019-04-27T11:06:38.641Z,100631.98
2019-04-27T11:09:10.282Z,100629.16
2019-04-27T11:11:41.654Z,100624.47
2019-04-27T11:14:11.747Z,100633.83
2019-04-27T11:16:41.490Z,100624.36
2019-04-27T11:19:11.268Z,100606.07
2019-04-27T11:21:40.966Z,100627.15
2019-04-27T11:24:10.637Z,100629.91
2019-04-27T11:26:40.458Z,100630.84
2019-04-27T11:29:10.218Z,100616.34
2019-04-27T11:31:39.944Z,100616.07
2019-04-27T11:34:09.614Z,100602.40
2019-04-27T11:36:57.193Z,100604.17
2019-04-27T11:39:27.734Z,100616.28
2019-04-27T11:41:57.376Z,100612.20
2019-04-27T11:44:27.055Z,100614.56
2019-04-27T11:46:56.708Z,100609.31
2019-04-27T11:49:26.378Z,100593.77
2019-04-27T11:51:56.738Z,100597.28
2019-04-27T11:54:27.571Z,100590.09
2019-04-27T11:56:57.438Z,100581.53
2019-04-27T11:59:27.206Z,100586.25
2019-04-27T12:01:56.837Z,100592.95
2019-04-27T12:04:26.532Z,100581.39
2019-04-27T12:06:56.560Z,100588.69
2019-04-27T12:09:26.466Z,100591.12
2019-04-27T12:12:06.764Z,100584.49
2019-04-27T12:14:27.478Z,100584.30
2019-04-27T12:16:57.126Z,100587.00
2019-04-27T12:19:26.987Z,100598.71
2019-04-27T12:21:56.828Z,100591.69
2019-04-27T12:24:26.830Z,100587.69
2019-04-27T12:27:15.980Z,100604.38
2019-04-27T12:30:03.433Z,100598.47
2019-04-27T12:32:35.914Z,100598.77
2019-04-27T12:35:06.703Z,100596.08
2019-04-27T12:37:36.688Z,100593.39
2019-04-27T12:40:06.954Z,100590.21
2019-04-27T12:42:36.701Z,100599.39
2019-04-27T12:45:06.939Z,100585.63
2019-04-27T12:47:38.122Z,100585.80
2019-04-27T12:50:09.907Z,100588.05
2019-04-27T12:52:40.342Z,100592.81
2019-04-27T12:55:18.027Z,100584.12
2019-04-27T12:58:04.021Z,100584.12
2019-04-27T13:00:37.554Z,100586.56
2019-04-27T13:03:07.242Z,100586.61
2019-04-27T13:05:36.922Z,100584.12
2019-04-27T13:08:06.596Z,100573.36
2019-04-27T13:10:37.425Z,100576.18
2019-04-27T13:13:08.064Z,100575.14
2019-04-27T13:15:37.763Z,100568.41
2019-04-27T13:18:07.498Z,100566.77
2019-04-27T13:20:37.188Z,100566.57
2019-04-27T13:23:07.373Z,100555.53
2019-04-27T13:25:38.512Z,100559.50
2019-04-27T13:28:08.342Z,100554.50
2019-04-27T13:30:38.027Z,100550.49
2019-04-27T13:33:07.702Z,100550.91
2019-04-27T13:35:37.400Z,100546.66
2019-04-27T13:38:07.092Z,100545.94
2019-04-27T13:40:39.527Z,100545.56
2019-04-27T13:43:17.732Z,100545.83
2019-04-27T13:45:55.044Z,100545.05
2019-04-27T13:48:42.233Z,100537.31
2019-04-27T13:51:14.451Z,100540.11
2019-04-27T13:53:45.607Z,100539.85
2019-04-27T13:56:17.278Z,100550.30
2019-04-27T13:58:46.964Z,100566.28
2019-04-27T14:01:16.789Z,100576.34
2019-04-27T14:03:46.416Z,100560.31
2019-04-27T14:06:16.124Z,100558.34
2019-04-27T14:08:45.806Z,100558.36
2019-04-27T14:11:18.388Z,100564.94
2019-04-27T14:13:49.149Z,100563.81
2019-04-27T14:16:19.064Z,100549.92
2019-04-27T14:18:48.799Z,100553.06
2019-04-27T14:21:18.553Z,100548.89
2019-04-27T14:23:48.509Z,100533.48
2019-04-27T14:26:18.520Z,100521.63
2019-04-27T14:28:50.011Z,100515.97
2019-04-27T14:31:19.878Z,100508.93
2019-04-27T14:33:49.587Z,100511.36
2019-04-27T14:36:19.274Z,100502.16
2019-04-27T14:38:50.053Z,100493.69
2019-04-27T14:41:20.033Z,100496.78
2019-04-27T14:44:04.950Z,100495.30
2019-04-27T14:46:21.186Z,100493.28
2019-04-27T14:48:50.846Z,100492.21
2019-04-27T14:51:20.523Z,100493.86
2019-04-27T14:53:50.266Z,100490.43
2019-04-27T14:56:20.209Z,100489.62
2019-04-27T14:58:50.054Z,100491.83
2019-04-27T15:01:20.545Z,100495.50
2019-04-27T15:03:50.316Z,100496.06
2019-04-27T15:06:22.050Z,100497.80
2019-04-27T15:08:51.808Z,100503.64
2019-04-27T15:11:21.480Z,100512.73
2019-04-27T15:13:53.285Z,100516.80
2019-04-27T15:16:23.658Z,100527.00
2019-04-27T15:18:57.705Z,100527.21
2019-04-27T15:21:27.461Z,100536.69
2019-04-27T15:23:57.199Z,100538.75
2019-04-27T15:26:26.880Z,100552.86
2019-04-27T15:28:59.009Z,100548.62
2019-04-27T15:31:40.807Z,100568.68
2019-04-27T15:34:29.121Z,100559.06
2019-04-27T15:37:23.675Z,100578.33
2019-04-27T15:40:15.466Z,100576.19
2019-04-27T15:43:00.515Z,100586.41
2019-04-27T15:45:30.175Z,100601.68
2019-04-27T15:47:59.931Z,100609.19
2019-04-27T15:50:32.220Z,100616.37
2019-04-27T15:53:05.384Z,100626.02
2019-04-27T15:55:36.849Z,100643.19
2019-04-27T15:58:04.027Z,100648.02
2019-04-27T16:00:33.924Z,100643.09
2019-04-27T16:03:03.615Z,100654.24
2019-04-27T16:05:36.094Z,100666.31
2019-04-27T16:08:12.482Z,100664.98
2019-04-27T16:10:40.067Z,100676.73
2019-04-27T16:13:13.431Z,100666.61
2019-04-27T16:15:39.995Z,100665.27
2019-04-27T16:18:09.663Z,100643.48
2019-04-27T16:20:39.401Z,100644.63
2019-04-27T16:23:09.159Z,100656.34
2019-04-27T16:25:48.421Z,100664.64
2019-04-27T16:28:13.357Z,100674.94
2019-04-27T16:30:45.598Z,100688.28
2019-04-27T16:33:15.438Z,100693.67
2019-04-27T16:35:45.576Z,100702.75
2019-04-27T16:38:33.612Z,100707.27
2019-04-27T16:41:03.310Z,100726.97
2019-04-27T16:43:33.059Z,100732.55
2019-04-27T16:46:04.656Z,100735.27
2019-04-27T16:48:36.241Z,100736.62
2019-04-27T16:51:06.013Z,100726.11
2019-04-27T16:53:39.426Z,100729.41
2019-04-27T16:56:14.548Z,100720.28
2019-04-27T16:58:39.672Z,100728.58
2019-04-27T17:01:23.986Z,100719.81
2019-04-27T17:03:54.646Z,100719.25
2019-04-27T17:06:24.442Z,100718.27
2019-04-27T17:08:57.313Z,100711.98
2019-04-27T17:11:25.573Z,100717.17
2019-04-27T17:14:05.632Z,100716.52
2019-04-27T17:16:58.138Z,100709.72
2019-04-27T17:19:35.776Z,100708.17
2019-04-27T17:22:05.187Z,100712.49
2019-04-27T17:24:45.269Z,100712.23
2019-04-27T17:27:11.125Z,100708.44
2019-04-27T17:29:41.181Z,100712.55
2019-04-27T17:32:42.489Z,100709.16
2019-04-27T17:35:14.864Z,100716.39
2019-04-27T17:37:43.669Z,100715.98
2019-04-27T17:40:15.387Z,100715.36
2019-04-27T17:42:45.050Z,100708.11
2019-04-27T17:45:15.065Z,100699.14
2019-04-27T17:47:44.721Z,100699.88
2019-04-27T17:50:18.463Z,100695.84
2019-04-27T17:52:48.427Z,100696.31
2019-04-27T17:55:24.101Z,100699.08
2019-04-27T17:57:49.214Z,100702.34
2019-04-27T18:00:19.581Z,100703.61
2019-04-27T18:02:49.235Z,100710.59
2019-04-27T18:05:18.913Z,100710.53
2019-04-27T18:07:48.759Z,100721.52
2019-04-27T18:10:23.824Z,100722.65
2019-04-27T18:12:50.917Z,100721.07
2019-04-27T18:15:20.669Z,100724.17
2019-04-27T18:17:52.491Z,100724.13
2019-04-27T18:20:24.538Z,100724.10
2019-04-27T18:23:00.309Z,100724.30
2019-04-27T18:25:35.703Z,100722.91
2019-04-27T18:28:15.138Z,100727.42
2019-04-27T18:31:01.474Z,100718.46
2019-04-27T18:33:32.704Z,100731.69
2019-04-27T18:36:05.479Z,100740.66
2019-04-27T18:38:35.443Z,100732.58
2019-04-27T18:41:07.990Z,100738.16
2019-04-27T18:43:38.878Z,100733.42
2019-04-27T18:46:09.103Z,100730.62
2019-04-27T18:48:58.449Z,100734.84
2019-04-27T18:52:04.343Z,100733.49
2019-04-27T18:54:38.210Z,100735.49
2019-04-27T18:57:06.078Z,100738.33
2019-04-27T18:59:35.727Z,100729.16
2019-04-27T19:02:05.474Z,100733.42
2019-04-27T19:04:35.133Z,100722.91
2019-04-27T19:07:04.900Z,100722.41
2019-04-27T19:09:34.543Z,100729.11
2019-04-27T19:12:04.304Z,100721.87
2019-04-27T19:14:34.010Z,100722.72
2019-04-27T19:17:03.777Z,100727.52
2019-04-27T19:19:33.499Z,100737.59
2019-04-27T19:22:03.170Z,100731.51
2019-04-27T19:24:32.874Z,100737.07
2019-04-27T19:27:18.024Z,100747.89
2019-04-27T19:29:50.629Z,100740.94
2019-04-27T19:32:20.307Z,100751.50
2019-04-27T19:34:49.977Z,100753.73
2019-04-27T19:37:19.847Z,100760.66
2019-04-27T19:39:49.820Z,100763.72
2019-04-27T19:42:20.232Z,100763.12
2019-04-27T19:44:50.331Z,100765.11
2019-04-27T19:47:20.017Z,100767.10
2019-04-27T19:49:49.709Z,100777.47
2019-04-27T19:52:22.493Z,100776.34
2019-04-27T19:54:50.840Z,100773.55
2019-04-27T19:57:31.876Z,100773.27
2019-04-27T19:59:55.363Z,100778.80
2019-04-27T20:02:25.043Z,100787.70
2019-04-27T20:05:01.123Z,100789.16
2019-04-27T20:07:32.661Z,100794.47
2019-04-27T20:10:04.184Z,100798.64
2019-04-27T20:12:34.025Z,100801.64
2019-04-27T20:15:04.042Z,100794.86
2019-04-27T20:17:34.354Z,100797.27
2019-04-27T20:20:05.648Z,100805.80
2019-04-27T20:22:35.358Z,100808.70
2019-04-27T20:25:05.853Z,100807.14
2019-04-27T20:27:45.985Z,100821.39
2019-04-27T20:30:08.668Z,100815.09
2019-04-27T20:32:38.816Z,100816.00
2019-04-27T20:35:08.945Z,100826.87
2019-04-27T20:37:38.680Z,100834.11
2019-04-27T20:40:11.183Z,100836.35
2019-04-27T20:42:41.524Z,100834.69
2019-04-27T20:45:12.643Z,100835.59
2019-04-27T20:47:42.326Z,100842.58
2019-04-27T20:50:12.073Z,100836.78
2019-04-27T20:53:00.763Z,100833.77
2019-04-27T20:55:32.223Z,100839.09
2019-04-27T20:58:02.589Z,100847.52
2019-04-27T21:00:32.752Z,100844.48
2019-04-27T21:03:07.161Z,100855.41
2019-04-27T21:06:01.541Z,100853.19
2019-04-27T21:08:33.728Z,100853.48
2019-04-27T21:11:03.414Z,100859.90
2019-04-27T21:13:33.078Z,100864.91
2019-04-27T21:16:02.764Z,100861.31
2019-04-27T21:18:32.446Z,100865.21
2019-04-27T21:21:02.173Z,100872.73
2019-04-27T21:23:31.856Z,100877.44
2019-04-27T21:26:02.066Z,100864.95
2019-04-27T21:28:32.456Z,100869.70
2019-04-27T21:31:02.162Z,100868.59
2019-04-27T21:33:31.918Z,100869.44
2019-04-27T21:36:01.587Z,100869.45
2019-04-27T21:38:31.248Z,100870.02
2019-04-27T21:41:00.907Z,100880.60
2019-04-27T21:43:32.253Z,100885.06
2019-04-27T21:46:01.982Z,100884.78
2019-04-27T21:48:31.635Z,100888.94
2019-04-27T21:51:01.570Z,100890.61
2019-04-27T21:53:38.339Z,100896.47
2019-04-27T21:56:11.143Z,100897.86
2019-04-27T21:58:42.060Z,100902.56
2019-04-27T22:01:24.808Z,100909.23
2019-04-27T22:03:54.832Z,100908.41
2019-04-27T22:06:24.743Z,100912.30
2019-04-27T22:08:55.824Z,100908.70
2019-04-27T22:11:25.539Z,100915.08
2019-04-27T22:13:55.446Z,100908.41
2019-04-27T22:16:25.298Z,100914.23
2019-04-27T22:18:54.952Z,100922.02
2019-04-27T22:21:24.614Z,100928.41
2019-04-27T22:24:08.938Z,100932.02
2019-04-27T22:26:38.607Z,100935.36
2019-04-27T22:29:08.273Z,100940.92
2019-04-27T22:31:38.011Z,100940.10
2019-04-27T22:34:07.743Z,100941.78
2019-04-27T22:36:37.404Z,100940.38
2019-04-27T22:39:25.322Z,100936.78
2019-04-27T22:42:02.420Z,100940.38
2019-04-27T22:44:41.493Z,100935.37
2019-04-27T22:47:12.932Z,100937.31
2019-04-27T22:49:42.658Z,100939.25
2019-04-27T22:52:12.315Z,100941.47
2019-04-27T22:54:42.235Z,100945.66
2019-04-27T22:57:18.504Z,100946.22
2019-04-27T22:59:58.329Z,100951.50
2019-04-27T23:02:42.030Z,100953.74
2019-04-27T23:05:11.865Z,100945.67
2019-04-27T23:07:41.585Z,100950.95
2019-04-27T23:10:11.364Z,100946.78
2019-04-27T23:12:42.017Z,100943.44
2019-04-27T23:15:16.273Z,100947.06
2019-04-27T23:17:52.867Z,100950.39
2019-04-27T23:20:22.799Z,100955.94
2019-04-27T23:22:52.529Z,100954.28
2019-04-27T23:25:22.187Z,100953.45
2019-04-27T23:27:51.852Z,100955.13
2019-04-27T23:30:24.850Z,100952.62
2019-04-27T23:32:54.633Z,100953.16
2019-04-27T23:35:24.297Z,100955.40
2019-04-27T23:37:54.034Z,100959.84
2019-04-27T23:40:23.684Z,100962.91
2019-04-27T23:42:53.446Z,100963.18
2019-04-27T23:45:23.105Z,100960.66
2019-04-27T23:47:52.792Z,100965.94
2019-04-27T23:50:22.918Z,100965.40
2019-04-27T23:53:23.474Z,100967.89
2019-04-27T23:55:53.135Z,100964.56
2019-04-27T23:58:22.789Z,100966.80
